createdAt,value
2023-04-26T00:00:01.110Z,8.63
2023-04-26T00:00:13.501Z,8.58
2023-04-26T00:00:25.645Z,8.58
2023-04-26T00:00:38.009Z,8.59
2023-04-26T00:00:49.911Z,8.59
2023-04-26T00:01:04.199Z,8.60
2023-04-26T00:01:17.298Z,8.59
2023-04-26T00:01:29.993Z,8.56
2023-04-26T00:01:42.430Z,8.55
2023-04-26T00:01:54.351Z,8.54
2023-04-26T00:02:06.419Z,8.52
2023-04-26T00:02:18.724Z,8.52
2023-04-26T00:02:31.011Z,8.51
2023-04-26T00:02:43.249Z,8.49
2023-04-26T00:02:55.710Z,8.50
2023-04-26T00:03:07.994Z,8.50
2023-04-26T00:03:20.604Z,8.50
2023-04-26T00:03:33.000Z,8.51
2023-04-26T00:03:45.856Z,8.52
2023-04-26T00:04:00.083Z,8.49
2023-04-26T00:04:12.484Z,8.49
2023-04-26T00:04:25.310Z,8.49
2023-04-26T00:04:40.437Z,8.45
2023-04-26T00:04:58.133Z,8.46
2023-04-26T00:05:10.776Z,8.46
2023-04-26T00:05:25.544Z,8.44
2023-04-26T00:05:38.011Z,8.47
2023-04-26T00:05:50.695Z,8.47
2023-04-26T00:06:05.734Z,8.48
2023-04-26T00:06:17.687Z,8.49
2023-04-26T00:06:29.661Z,8.50
2023-04-26T00:06:41.629Z,8.50
2023-04-26T00:06:53.548Z,8.50
2023-04-26T00:07:06.329Z,8.50
2023-04-26T00:07:18.389Z,8.51
2023-04-26T00:07:30.704Z,8.49
2023-04-26T00:07:43.606Z,8.51
2023-04-26T00:07:55.583Z,8.49
2023-04-26T00:08:07.811Z,8.50
2023-04-26T00:08:19.778Z,8.51
2023-04-26T00:08:31.736Z,8.52
2023-04-26T00:08:43.651Z,8.49
2023-04-26T00:08:55.799Z,8.46
2023-04-26T00:09:13.433Z,8.47
2023-04-26T00:09:25.680Z,8.47
2023-04-26T00:09:37.596Z,8.44
2023-04-26T00:09:49.564Z,8.45
2023-04-26T00:10:01.585Z,8.45
2023-04-26T00:10:13.495Z,8.46
2023-04-26T00:10:25.525Z,8.45
2023-04-26T00:10:37.956Z,8.48
2023-04-26T00:10:49.890Z,8.46
2023-04-26T00:11:01.953Z,8.48
2023-04-26T00:11:13.830Z,8.49
2023-04-26T00:11:26.050Z,8.50
2023-04-26T00:11:38.019Z,8.48
2023-04-26T00:11:50.006Z,8.48
2023-04-26T00:12:02.202Z,8.49
2023-04-26T00:12:14.148Z,8.46
2023-04-26T00:12:26.132Z,8.44
2023-04-26T00:12:38.171Z,8.42
2023-04-26T00:12:50.112Z,8.40
2023-04-26T00:13:02.093Z,8.39
2023-04-26T00:13:14.048Z,8.39
2023-04-26T00:13:26.207Z,8.37
2023-04-26T00:13:38.508Z,8.37
2023-04-26T00:13:50.619Z,8.38
2023-04-26T00:14:02.522Z,8.38
2023-04-26T00:14:17.497Z,8.37
2023-04-26T00:14:29.404Z,8.37
2023-04-26T00:14:41.342Z,8.37
2023-04-26T00:14:53.275Z,8.37
2023-04-26T00:15:05.790Z,8.37
2023-04-26T00:15:17.801Z,8.36
2023-04-26T00:15:29.823Z,8.37
2023-04-26T00:15:41.768Z,8.39
2023-04-26T00:15:53.713Z,8.39
2023-04-26T00:16:06.005Z,8.39
2023-04-26T00:16:18.512Z,8.42
2023-04-26T00:16:30.534Z,8.44
2023-04-26T00:16:42.546Z,8.43
2023-04-26T00:16:54.814Z,8.43
2023-04-26T00:17:06.750Z,8.42
2023-04-26T00:17:18.674Z,8.37
2023-04-26T00:17:31.415Z,8.32
2023-04-26T00:17:44.069Z,8.30
2023-04-26T00:17:56.150Z,8.32
2023-04-26T00:18:08.143Z,8.32
2023-04-26T00:18:20.142Z,8.33
2023-04-26T00:18:32.179Z,8.35
2023-04-26T00:18:46.133Z,8.36
2023-04-26T00:18:58.074Z,8.36
2023-04-26T00:19:10.285Z,8.35
2023-04-26T00:19:27.706Z,8.36
2023-04-26T00:19:39.711Z,8.33
2023-04-26T00:19:51.977Z,8.33
2023-04-26T00:20:06.881Z,8.33
2023-04-26T00:20:18.917Z,8.31
2023-04-26T00:20:30.859Z,8.29
2023-04-26T00:20:43.014Z,8.31
2023-04-26T00:20:54.882Z,8.33
2023-04-26T00:21:06.995Z,8.34
2023-04-26T00:21:18.923Z,8.35
2023-04-26T00:21:31.835Z,8.36
2023-04-26T00:21:43.907Z,8.38
2023-04-26T00:21:55.862Z,8.38
2023-04-26T00:22:08.776Z,8.39
2023-04-26T00:22:20.708Z,8.38
2023-04-26T00:22:32.689Z,8.40
2023-04-26T00:22:44.701Z,8.39
2023-04-26T00:22:56.629Z,8.38
2023-04-26T00:23:10.727Z,8.39
2023-04-26T00:23:22.690Z,8.38
2023-04-26T00:23:36.489Z,8.38
2023-04-26T00:23:48.493Z,8.38
2023-04-26T00:24:00.451Z,8.40
2023-04-26T00:24:12.536Z,8.40
2023-04-26T00:24:28.171Z,8.40
2023-04-26T00:24:40.077Z,8.39
2023-04-26T00:24:51.958Z,8.39
2023-04-26T00:25:04.173Z,8.37
2023-04-26T00:25:16.165Z,8.34
2023-04-26T00:25:28.072Z,8.33
2023-04-26T00:25:40.110Z,8.33
2023-04-26T00:25:51.993Z,8.30
2023-04-26T00:26:04.410Z,8.28
2023-04-26T00:26:16.391Z,8.28
2023-04-26T00:26:28.413Z,8.27
2023-04-26T00:26:40.309Z,8.26
2023-04-26T00:26:55.815Z,8.23
2023-04-26T00:27:10.332Z,8.22
2023-04-26T00:27:22.237Z,8.23
2023-04-26T00:27:34.134Z,8.20
2023-04-26T00:27:46.255Z,8.19
2023-04-26T00:27:58.178Z,8.21
2023-04-26T00:28:10.172Z,8.21
2023-04-26T00:28:22.108Z,8.21
2023-04-26T00:28:34.130Z,8.22
2023-04-26T00:28:46.191Z,8.23
2023-04-26T00:28:58.115Z,8.22
2023-04-26T00:29:10.006Z,8.23
2023-04-26T00:29:22.483Z,8.22
2023-04-26T00:29:34.731Z,8.21
2023-04-26T00:29:46.728Z,8.21
2023-04-26T00:29:58.729Z,8.21
2023-04-26T00:30:11.173Z,8.17
2023-04-26T00:30:23.119Z,8.18
2023-04-26T00:30:41.210Z,8.22
2023-04-26T00:30:53.147Z,8.22
2023-04-26T00:31:05.143Z,8.21
2023-04-26T00:31:17.494Z,8.20
2023-04-26T00:31:29.579Z,8.22
2023-04-26T00:31:41.545Z,8.23
2023-04-26T00:31:53.590Z,8.23
2023-04-26T00:32:05.828Z,8.21
2023-04-26T00:32:17.825Z,8.20
2023-04-26T00:32:31.087Z,8.20
2023-04-26T00:32:43.152Z,8.19
2023-04-26T00:32:55.105Z,8.15
2023-04-26T00:33:07.306Z,8.14
2023-04-26T00:33:19.313Z,8.11
2023-04-26T00:33:31.263Z,8.10
2023-04-26T00:33:44.173Z,8.10
2023-04-26T00:33:56.231Z,8.09
2023-04-26T00:34:08.176Z,8.09
2023-04-26T00:34:20.134Z,8.07
2023-04-26T00:34:37.878Z,8.08
2023-04-26T00:34:49.760Z,8.08
2023-04-26T00:35:04.359Z,8.04
2023-04-26T00:35:16.335Z,8.00
2023-04-26T00:35:28.230Z,8.02
2023-04-26T00:35:40.587Z,7.99
2023-04-26T00:35:52.557Z,8.02
2023-04-26T00:36:04.593Z,8.03
2023-04-26T00:36:19.171Z,8.03
2023-04-26T00:36:32.592Z,8.04
2023-04-26T00:36:44.473Z,8.05
2023-04-26T00:36:56.463Z,8.02
2023-04-26T00:37:08.420Z,7.99
2023-04-26T00:37:21.324Z,8.02
2023-04-26T00:37:33.253Z,8.04
2023-04-26T00:37:45.193Z,8.03
2023-04-26T00:37:57.111Z,8.03
2023-04-26T00:38:09.096Z,8.01
2023-04-26T00:38:21.038Z,7.99
2023-04-26T00:38:32.946Z,7.99
2023-04-26T00:38:45.919Z,7.99
2023-04-26T00:38:57.797Z,8.00
2023-04-26T00:39:10.251Z,7.97
2023-04-26T00:39:22.191Z,7.98
2023-04-26T00:39:35.368Z,7.98
2023-04-26T00:39:47.466Z,7.99
2023-04-26T00:39:59.394Z,8.00
2023-04-26T00:40:12.092Z,8.01
2023-04-26T00:40:24.119Z,8.00
2023-04-26T00:40:36.152Z,8.00
2023-04-26T00:40:48.105Z,8.01
2023-04-26T00:41:00.047Z,8.02
2023-04-26T00:41:12.192Z,8.00
2023-04-26T00:41:24.424Z,7.99
2023-04-26T00:41:36.560Z,7.98
2023-04-26T00:41:48.760Z,7.99
2023-04-26T00:42:00.748Z,8.02
2023-04-26T00:42:12.708Z,8.02
2023-04-26T00:42:24.731Z,8.02
2023-04-26T00:42:40.712Z,8.00
2023-04-26T00:42:59.855Z,7.98
2023-04-26T00:43:12.493Z,7.96
2023-04-26T00:43:24.504Z,7.93
2023-04-26T00:43:36.459Z,7.91
2023-04-26T00:43:48.434Z,7.90
2023-04-26T00:44:00.680Z,7.92
2023-04-26T00:44:12.635Z,7.93
2023-04-26T00:44:24.559Z,7.91
2023-04-26T00:44:36.479Z,7.90
2023-04-26T00:44:50.277Z,7.88
2023-04-26T00:45:02.220Z,7.85
2023-04-26T00:45:14.287Z,7.85
2023-04-26T00:45:26.868Z,7.82
2023-04-26T00:45:39.639Z,7.76
2023-04-26T00:45:52.117Z,7.74
2023-04-26T00:46:04.136Z,7.73
2023-04-26T00:46:16.245Z,7.74
2023-04-26T00:46:29.342Z,7.72
2023-04-26T00:46:41.679Z,7.70
2023-04-26T00:46:53.873Z,7.70
2023-04-26T00:47:06.391Z,7.71
2023-04-26T00:47:18.415Z,7.70
2023-04-26T00:47:30.928Z,7.69
2023-04-26T00:47:43.270Z,7.67
2023-04-26T00:47:55.318Z,7.65
2023-04-26T00:48:07.549Z,7.65
2023-04-26T00:48:20.900Z,7.63
2023-04-26T00:48:33.808Z,7.63
2023-04-26T00:48:46.985Z,7.64
2023-04-26T00:48:58.930Z,7.60
2023-04-26T00:49:17.036Z,7.61
2023-04-26T00:49:29.024Z,7.63
2023-04-26T00:49:41.517Z,7.64
2023-04-26T00:49:53.683Z,7.63
2023-04-26T00:50:07.997Z,7.63
2023-04-26T00:50:20.604Z,7.64
2023-04-26T00:50:32.827Z,7.65
2023-04-26T00:50:45.153Z,7.65
2023-04-26T00:50:57.058Z,7.66
2023-04-26T00:51:09.524Z,7.66
2023-04-26T00:51:21.631Z,7.64
2023-04-26T00:51:33.673Z,7.63
2023-04-26T00:51:47.545Z,7.59
2023-04-26T00:51:59.648Z,7.59
2023-04-26T00:52:11.892Z,7.59
2023-04-26T00:52:24.821Z,7.59
2023-04-26T00:52:37.061Z,7.57
2023-04-26T00:52:50.511Z,7.59
2023-04-26T00:53:02.822Z,7.58
2023-04-26T00:53:16.358Z,7.60
2023-04-26T00:53:30.658Z,7.58
2023-04-26T00:53:42.987Z,7.57
2023-04-26T00:53:55.097Z,7.59
2023-04-26T00:54:07.016Z,7.60
2023-04-26T00:54:20.445Z,7.60
2023-04-26T00:54:32.509Z,7.62
2023-04-26T00:54:44.578Z,7.59
2023-04-26T00:54:57.243Z,7.60
2023-04-26T00:55:10.213Z,7.59
2023-04-26T00:55:23.133Z,7.58
2023-04-26T00:55:36.031Z,7.59
2023-04-26T00:55:49.044Z,7.60
2023-04-26T00:56:01.676Z,7.60
2023-04-26T00:56:15.473Z,7.58
2023-04-26T00:56:27.447Z,7.58
2023-04-26T00:56:40.326Z,7.57
2023-04-26T00:56:53.197Z,7.58
2023-04-26T00:57:07.108Z,7.58
2023-04-26T00:57:19.099Z,7.59
2023-04-26T00:57:31.682Z,7.58
2023-04-26T00:57:45.747Z,7.59
2023-04-26T00:57:57.834Z,7.58
2023-04-26T00:58:09.949Z,7.57
2023-04-26T00:58:21.925Z,7.52
2023-04-26T00:58:33.971Z,7.53
2023-04-26T00:58:46.257Z,7.52
2023-04-26T00:58:58.251Z,7.51
2023-04-26T00:59:10.141Z,7.47
2023-04-26T00:59:22.492Z,7.45
2023-04-26T00:59:35.363Z,7.45
2023-04-26T00:59:51.092Z,7.45
2023-04-26T01:00:03.918Z,7.46
2023-04-26T01:00:19.117Z,7.46
2023-04-26T01:00:31.001Z,7.44
2023-04-26T01:00:42.945Z,7.45
2023-04-26T01:00:55.312Z,7.44
2023-04-26T01:01:07.981Z,7.44
2023-04-26T01:01:20.094Z,7.43
2023-04-26T01:01:32.562Z,7.44
2023-04-26T01:01:44.632Z,7.46
2023-04-26T01:01:57.596Z,7.46
2023-04-26T01:02:09.745Z,7.47
2023-04-26T01:02:21.856Z,7.45
2023-04-26T01:02:34.052Z,7.48
2023-04-26T01:02:46.085Z,7.48
2023-04-26T01:02:58.270Z,7.48
2023-04-26T01:03:11.147Z,7.50
2023-04-26T01:03:23.325Z,7.51
2023-04-26T01:03:35.669Z,7.52
2023-04-26T01:03:48.040Z,7.52
2023-04-26T01:04:00.435Z,7.53
2023-04-26T01:04:13.198Z,7.54
2023-04-26T01:04:27.316Z,7.56
2023-04-26T01:04:41.780Z,7.58
2023-04-26T01:04:56.249Z,7.59
2023-04-26T01:05:09.338Z,7.60
2023-04-26T01:05:21.582Z,7.62
2023-04-26T01:05:33.508Z,7.62
2023-04-26T01:05:45.857Z,7.61
2023-04-26T01:05:58.383Z,7.61
2023-04-26T01:06:10.923Z,7.62
2023-04-26T01:06:23.049Z,7.62
2023-04-26T01:06:38.311Z,7.62
2023-04-26T01:06:50.505Z,7.62
2023-04-26T01:07:03.034Z,7.58
2023-04-26T01:07:15.309Z,7.58
2023-04-26T01:07:27.283Z,7.59
2023-04-26T01:07:39.875Z,7.59
2023-04-26T01:07:52.131Z,7.60
2023-04-26T01:08:04.872Z,7.60
2023-04-26T01:08:20.737Z,7.62
2023-04-26T01:08:32.699Z,7.60
2023-04-26T01:08:44.643Z,7.59
2023-04-26T01:08:59.248Z,7.60
2023-04-26T01:09:14.752Z,7.59
2023-04-26T01:09:26.797Z,7.59
2023-04-26T01:09:40.416Z,7.56
2023-04-26T01:09:52.622Z,7.53
2023-04-26T01:10:09.321Z,7.53
2023-04-26T01:10:21.341Z,7.53
2023-04-26T01:10:35.071Z,7.52
2023-04-26T01:10:48.408Z,7.52
2023-04-26T01:11:00.748Z,7.52
2023-04-26T01:11:12.897Z,7.52
2023-04-26T01:11:25.132Z,7.52
2023-04-26T01:11:38.242Z,7.44
2023-04-26T01:11:52.520Z,7.44
2023-04-26T01:12:05.449Z,7.45
2023-04-26T01:12:19.232Z,7.44
2023-04-26T01:12:32.259Z,7.44
2023-04-26T01:12:44.456Z,7.43
2023-04-26T01:12:57.805Z,7.42
2023-04-26T01:13:11.378Z,7.43
2023-04-26T01:13:23.315Z,7.40
2023-04-26T01:13:36.410Z,7.40
2023-04-26T01:13:49.435Z,7.39
2023-04-26T01:14:02.181Z,7.40
2023-04-26T01:14:16.176Z,7.39
2023-04-26T01:14:28.757Z,7.41
2023-04-26T01:14:41.109Z,7.41
2023-04-26T01:14:53.776Z,7.42
2023-04-26T01:15:11.888Z,7.40
2023-04-26T01:15:24.818Z,7.39
2023-04-26T01:15:37.000Z,7.41
2023-04-26T01:15:49.292Z,7.37
2023-04-26T01:16:02.454Z,7.38
2023-04-26T01:16:15.508Z,7.39
2023-04-26T01:16:28.256Z,7.39
2023-04-26T01:16:40.904Z,7.38
2023-04-26T01:16:53.103Z,7.38
2023-04-26T01:17:06.109Z,7.40
2023-04-26T01:17:18.137Z,7.40
2023-04-26T01:17:30.124Z,7.41
2023-04-26T01:17:44.374Z,7.39
2023-04-26T01:17:57.547Z,7.37
2023-04-26T01:18:09.584Z,7.37
2023-04-26T01:18:21.459Z,7.35
2023-04-26T01:18:33.406Z,7.34
2023-04-26T01:18:52.422Z,7.34
2023-04-26T01:19:12.768Z,7.37
2023-04-26T01:19:25.657Z,7.39
2023-04-26T01:19:47.065Z,7.36
2023-04-26T01:19:59.073Z,7.38
2023-04-26T01:20:14.102Z,7.37
2023-04-26T01:20:26.983Z,7.37
2023-04-26T01:20:38.875Z,7.36
2023-04-26T01:20:52.929Z,7.37
2023-04-26T01:21:05.274Z,7.36
2023-04-26T01:21:22.173Z,7.38
2023-04-26T01:21:34.526Z,7.38
2023-04-26T01:21:46.509Z,7.37
2023-04-26T01:21:58.422Z,7.31
2023-04-26T01:22:10.661Z,7.34
2023-04-26T01:22:22.771Z,7.35
2023-04-26T01:22:36.281Z,7.37
2023-04-26T01:22:48.166Z,7.38
2023-04-26T01:23:00.512Z,7.39
2023-04-26T01:23:12.439Z,7.39
2023-04-26T01:23:24.408Z,7.35
2023-04-26T01:23:36.277Z,7.38
2023-04-26T01:23:51.879Z,7.39
2023-04-26T01:24:04.076Z,7.37
2023-04-26T01:24:16.418Z,7.39
2023-04-26T01:24:28.456Z,7.39
2023-04-26T01:24:43.644Z,7.38
2023-04-26T01:24:58.044Z,7.38
2023-04-26T01:25:16.103Z,7.40
2023-04-26T01:25:28.379Z,7.41
2023-04-26T01:25:41.188Z,7.40
2023-04-26T01:25:53.827Z,7.41
2023-04-26T01:26:05.911Z,7.41
2023-04-26T01:26:18.692Z,7.43
2023-04-26T01:26:31.710Z,7.42
2023-04-26T01:26:46.357Z,7.42
2023-04-26T01:26:58.263Z,7.42
2023-04-26T01:27:10.487Z,7.40
2023-04-26T01:27:22.621Z,7.40
2023-04-26T01:27:35.968Z,7.42
2023-04-26T01:27:47.962Z,7.41
2023-04-26T01:28:00.130Z,7.41
2023-04-26T01:28:12.184Z,7.42
2023-04-26T01:28:24.330Z,7.43
2023-04-26T01:28:36.423Z,7.40
2023-04-26T01:28:49.607Z,7.43
2023-04-26T01:29:01.669Z,7.39
2023-04-26T01:29:18.442Z,7.37
2023-04-26T01:29:31.857Z,7.37
2023-04-26T01:29:43.971Z,7.37
2023-04-26T01:29:55.992Z,7.38
2023-04-26T01:30:09.647Z,7.39
2023-04-26T01:30:25.859Z,7.38
2023-04-26T01:30:37.781Z,7.37
2023-04-26T01:30:49.818Z,7.39
2023-04-26T01:31:01.857Z,7.39
2023-04-26T01:31:13.861Z,7.40
2023-04-26T01:31:26.130Z,7.38
2023-04-26T01:31:38.170Z,7.37
2023-04-26T01:31:50.329Z,7.36
2023-04-26T01:32:02.248Z,7.36
2023-04-26T01:32:14.187Z,7.34
2023-04-26T01:32:26.296Z,7.34
2023-04-26T01:32:38.343Z,7.30
2023-04-26T01:32:50.430Z,7.29
2023-04-26T01:33:02.464Z,7.29
2023-04-26T01:33:15.821Z,7.30
2023-04-26T01:33:27.758Z,7.30
2023-04-26T01:33:39.651Z,7.31
2023-04-26T01:33:51.521Z,7.31
2023-04-26T01:34:03.436Z,7.31
2023-04-26T01:34:16.421Z,7.31
2023-04-26T01:34:28.455Z,7.34
2023-04-26T01:34:40.392Z,7.35
2023-04-26T01:34:52.334Z,7.37
2023-04-26T01:35:05.660Z,7.36
2023-04-26T01:35:17.870Z,7.36
2023-04-26T01:35:33.445Z,7.39
2023-04-26T01:35:45.445Z,7.39
2023-04-26T01:35:57.471Z,7.40
2023-04-26T01:36:12.871Z,7.39
2023-04-26T01:36:24.798Z,7.36
2023-04-26T01:36:36.975Z,7.34
2023-04-26T01:36:48.957Z,7.35
2023-04-26T01:37:01.675Z,7.35
2023-04-26T01:37:13.719Z,7.37
2023-04-26T01:37:26.357Z,7.38
2023-04-26T01:37:38.295Z,7.37
2023-04-26T01:37:50.274Z,7.35
2023-04-26T01:38:02.256Z,7.33
2023-04-26T01:38:14.598Z,7.32
2023-04-26T01:38:26.545Z,7.32
2023-04-26T01:38:38.642Z,7.29
2023-04-26T01:38:50.836Z,7.30
2023-04-26T01:39:03.926Z,7.29
2023-04-26T01:39:15.845Z,7.30
2023-04-26T01:39:27.854Z,7.29
2023-04-26T01:39:39.770Z,7.28
2023-04-26T01:39:52.084Z,7.31
2023-04-26T01:40:07.028Z,7.28
2023-04-26T01:40:18.975Z,7.25
2023-04-26T01:40:30.904Z,7.27
2023-04-26T01:40:46.060Z,7.24
2023-04-26T01:40:57.992Z,7.22
2023-04-26T01:41:09.873Z,7.22
2023-04-26T01:41:22.686Z,7.24
2023-04-26T01:41:34.733Z,7.25
2023-04-26T01:41:46.751Z,7.24
2023-04-26T01:41:58.714Z,7.20
2023-04-26T01:42:10.922Z,7.20
2023-04-26T01:42:22.824Z,7.23
2023-04-26T01:42:34.836Z,7.20
2023-04-26T01:42:46.725Z,7.19
2023-04-26T01:42:58.619Z,7.16
2023-04-26T01:43:11.048Z,7.17
2023-04-26T01:43:23.485Z,7.14
2023-04-26T01:43:35.394Z,7.14
2023-04-26T01:43:47.265Z,7.15
2023-04-26T01:43:59.332Z,7.16
2023-04-26T01:44:11.290Z,7.18
2023-04-26T01:44:23.194Z,7.20
2023-04-26T01:44:35.140Z,7.23
2023-04-26T01:44:47.106Z,7.24
2023-04-26T01:44:59.014Z,7.25
2023-04-26T01:45:11.666Z,7.28
2023-04-26T01:45:24.015Z,7.31
2023-04-26T01:45:41.666Z,7.29
2023-04-26T01:45:53.752Z,7.31
2023-04-26T01:46:05.845Z,7.31
2023-04-26T01:46:17.852Z,7.32
2023-04-26T01:46:29.909Z,7.35
2023-04-26T01:46:42.011Z,7.35
2023-04-26T01:46:54.218Z,7.36
2023-04-26T01:47:06.511Z,7.35
2023-04-26T01:47:18.494Z,7.34
2023-04-26T01:47:30.746Z,7.34
2023-04-26T01:47:42.738Z,7.37
2023-04-26T01:47:54.751Z,7.37
2023-04-26T01:48:07.221Z,7.38
2023-04-26T01:48:19.200Z,7.33
2023-04-26T01:48:31.237Z,7.32
2023-04-26T01:48:43.221Z,7.30
2023-04-26T01:48:55.340Z,7.31
2023-04-26T01:49:07.416Z,7.31
2023-04-26T01:49:19.436Z,7.30
2023-04-26T01:49:31.666Z,7.32
2023-04-26T01:49:43.807Z,7.33
2023-04-26T01:49:55.848Z,7.31
2023-04-26T01:50:08.532Z,7.31
2023-04-26T01:50:20.681Z,7.32
2023-04-26T01:50:32.942Z,7.34
2023-04-26T01:50:49.463Z,7.35
2023-04-26T01:51:01.403Z,7.38
2023-04-26T01:51:13.781Z,7.41
2023-04-26T01:51:26.017Z,7.44
2023-04-26T01:51:38.235Z,7.41
2023-04-26T01:51:50.314Z,7.44
2023-04-26T01:52:02.233Z,7.43
2023-04-26T01:52:14.166Z,7.37
2023-04-26T01:52:26.159Z,7.42
2023-04-26T01:52:38.144Z,7.44
2023-04-26T01:52:50.177Z,7.44
2023-04-26T01:53:02.107Z,7.48
2023-04-26T01:53:14.066Z,7.49
2023-04-26T01:53:26.602Z,7.49
2023-04-26T01:53:38.628Z,7.49
2023-04-26T01:53:50.801Z,7.49
2023-04-26T01:54:03.133Z,7.50
2023-04-26T01:54:15.069Z,7.52
2023-04-26T01:54:26.996Z,7.52
2023-04-26T01:54:38.990Z,7.51
2023-04-26T01:54:51.380Z,7.49
2023-04-26T01:55:03.437Z,7.49
2023-04-26T01:55:15.589Z,7.51
2023-04-26T01:55:27.477Z,7.54
2023-04-26T01:55:39.350Z,7.57
2023-04-26T01:55:51.397Z,7.59
2023-04-26T01:56:03.443Z,7.60
2023-04-26T01:56:16.063Z,7.63
2023-04-26T01:56:28.188Z,7.65
2023-04-26T01:56:40.174Z,7.65
2023-04-26T01:56:52.189Z,7.65
2023-04-26T01:57:04.331Z,7.65
2023-04-26T01:57:16.234Z,7.68
2023-04-26T01:57:28.165Z,7.68
2023-04-26T01:57:40.114Z,7.68
2023-04-26T01:57:52.027Z,7.70
2023-04-26T01:58:04.028Z,7.69
2023-04-26T01:58:16.693Z,7.71
2023-04-26T01:58:29.458Z,7.72
2023-04-26T01:58:41.449Z,7.75
2023-04-26T01:58:55.483Z,7.77
2023-04-26T01:59:07.452Z,7.82
2023-04-26T01:59:19.380Z,7.83
2023-04-26T01:59:31.426Z,7.84
2023-04-26T01:59:43.363Z,7.85
2023-04-26T01:59:56.699Z,7.86
2023-04-26T02:00:09.357Z,7.87
2023-04-26T02:00:21.497Z,7.88
2023-04-26T02:00:33.738Z,7.89
2023-04-26T02:00:45.911Z,7.91
2023-04-26T02:01:08.766Z,7.89
2023-04-26T02:01:21.483Z,7.85
2023-04-26T02:01:33.499Z,7.88
2023-04-26T02:01:45.431Z,7.91
2023-04-26T02:01:57.496Z,7.90
2023-04-26T02:02:09.648Z,7.91
2023-04-26T02:02:21.841Z,7.93
2023-04-26T02:02:33.837Z,7.95
2023-04-26T02:02:45.981Z,7.94
2023-04-26T02:02:58.205Z,7.94
2023-04-26T02:03:10.335Z,7.95
2023-04-26T02:03:22.528Z,7.97
2023-04-26T02:03:35.805Z,7.97
2023-04-26T02:03:49.180Z,8.00
2023-04-26T02:04:01.129Z,8.03
2023-04-26T02:04:13.079Z,8.06
2023-04-26T02:04:25.832Z,8.06
2023-04-26T02:04:37.841Z,8.05
2023-04-26T02:04:49.828Z,8.06
2023-04-26T02:05:01.869Z,8.05
2023-04-26T02:05:13.979Z,8.04
2023-04-26T02:05:26.124Z,8.04
2023-04-26T02:05:38.119Z,8.03
2023-04-26T02:05:50.049Z,8.02
2023-04-26T02:06:02.435Z,7.97
2023-04-26T02:06:14.453Z,7.93
2023-04-26T02:06:26.615Z,7.89
2023-04-26T02:06:38.638Z,7.89
2023-04-26T02:06:50.660Z,7.87
2023-04-26T02:07:02.603Z,7.73
2023-04-26T02:07:14.523Z,7.76
2023-04-26T02:07:26.501Z,7.75
2023-04-26T02:07:38.919Z,7.73
2023-04-26T02:07:51.331Z,7.75
2023-04-26T02:08:03.409Z,7.79
2023-04-26T02:08:15.471Z,7.76
2023-04-26T02:08:28.079Z,7.77
2023-04-26T02:08:40.036Z,7.75
2023-04-26T02:08:53.257Z,7.76
2023-04-26T02:09:05.880Z,7.78
2023-04-26T02:09:18.244Z,7.82
2023-04-26T02:09:30.193Z,7.80
2023-04-26T02:09:43.018Z,7.83
2023-04-26T02:09:54.905Z,7.84
2023-04-26T02:10:07.562Z,7.86
2023-04-26T02:10:19.478Z,7.87
2023-04-26T02:10:31.369Z,7.87
2023-04-26T02:10:43.293Z,7.89
2023-04-26T02:10:55.564Z,7.89
2023-04-26T02:11:07.551Z,7.84
2023-04-26T02:11:19.609Z,7.82
2023-04-26T02:11:31.795Z,7.81
2023-04-26T02:11:44.044Z,7.77
2023-04-26T02:11:55.948Z,7.70
2023-04-26T02:12:08.453Z,7.69
2023-04-26T02:12:20.400Z,7.66
2023-04-26T02:12:32.373Z,7.65
2023-04-26T02:12:44.591Z,7.63
2023-04-26T02:12:56.638Z,7.64
2023-04-26T02:13:08.698Z,7.63
2023-04-26T02:13:20.664Z,7.63
2023-04-26T02:13:32.712Z,7.64
2023-04-26T02:13:44.618Z,7.59
2023-04-26T02:13:56.623Z,7.54
2023-04-26T02:14:08.588Z,7.52
2023-04-26T02:14:20.536Z,7.50
2023-04-26T02:14:32.476Z,7.46
2023-04-26T02:14:44.406Z,7.47
2023-04-26T02:14:56.388Z,7.49
2023-04-26T02:15:09.181Z,7.49
2023-04-26T02:15:21.857Z,7.51
2023-04-26T02:15:33.837Z,7.50
2023-04-26T02:15:49.410Z,7.51
2023-04-26T02:16:01.398Z,7.49
2023-04-26T02:16:15.948Z,7.53
2023-04-26T02:16:28.169Z,7.50
2023-04-26T02:16:40.551Z,7.47
2023-04-26T02:16:52.885Z,7.50
2023-04-26T02:17:04.900Z,7.54
2023-04-26T02:17:17.243Z,7.55
2023-04-26T02:17:29.243Z,7.54
2023-04-26T02:17:41.351Z,7.52
2023-04-26T02:17:53.771Z,7.52
2023-04-26T02:18:05.942Z,7.54
2023-04-26T02:18:21.690Z,7.55
2023-04-26T02:18:34.341Z,7.52
2023-04-26T02:18:47.205Z,7.52
2023-04-26T02:19:00.036Z,7.56
2023-04-26T02:19:12.525Z,7.57
2023-04-26T02:19:24.490Z,7.58
2023-04-26T02:19:36.496Z,7.63
2023-04-26T02:19:48.384Z,7.62
2023-04-26T02:20:00.293Z,7.65
2023-04-26T02:20:12.446Z,7.66
2023-04-26T02:20:24.506Z,7.63
2023-04-26T02:20:37.875Z,7.64
2023-04-26T02:20:49.803Z,7.62
2023-04-26T02:21:01.706Z,7.62
2023-04-26T02:21:13.648Z,7.64
2023-04-26T02:21:26.851Z,7.65
2023-04-26T02:22:18.560Z,7.60
2023-04-26T02:22:31.213Z,7.59
2023-04-26T02:22:43.308Z,7.58
2023-04-26T02:22:55.529Z,7.59
2023-04-26T02:23:07.429Z,7.63
2023-04-26T02:23:19.451Z,7.67
2023-04-26T02:23:31.357Z,7.67
2023-04-26T02:23:43.289Z,7.67
2023-04-26T02:23:55.318Z,7.66
2023-04-26T02:24:07.297Z,7.70
2023-04-26T02:24:19.756Z,7.72
2023-04-26T02:24:33.562Z,7.74
2023-04-26T02:24:45.708Z,7.77
2023-04-26T02:24:57.676Z,7.76
2023-04-26T02:25:09.740Z,7.77
2023-04-26T02:25:21.633Z,7.77
2023-04-26T02:25:33.931Z,7.74
2023-04-26T02:25:47.497Z,7.75
2023-04-26T02:25:59.395Z,7.75
2023-04-26T02:26:12.651Z,7.73
2023-04-26T02:26:24.601Z,7.72
2023-04-26T02:26:36.530Z,7.73
2023-04-26T02:26:48.671Z,7.73
2023-04-26T02:27:06.257Z,7.71
2023-04-26T02:27:18.586Z,7.68
2023-04-26T02:27:30.751Z,7.66
2023-04-26T02:27:42.660Z,7.64
2023-04-26T02:27:54.699Z,7.65
2023-04-26T02:28:06.611Z,7.65
2023-04-26T02:28:18.513Z,7.64
2023-04-26T02:28:31.425Z,7.67
2023-04-26T02:28:43.678Z,7.69
2023-04-26T02:28:55.606Z,7.69
2023-04-26T02:29:07.490Z,7.69
2023-04-26T02:29:26.578Z,7.70
2023-04-26T02:29:48.101Z,7.72
2023-04-26T02:30:00.001Z,7.73
2023-04-26T02:30:12.430Z,7.71
2023-04-26T02:30:24.357Z,7.69
2023-04-26T02:30:36.724Z,7.69
2023-04-26T02:30:48.627Z,7.70
2023-04-26T02:31:02.817Z,7.68
2023-04-26T02:31:14.960Z,7.68
2023-04-26T02:31:28.146Z,7.71
2023-04-26T02:31:40.315Z,7.72
2023-04-26T02:31:52.376Z,7.74
2023-04-26T02:32:07.216Z,7.74
2023-04-26T02:32:19.272Z,7.75
2023-04-26T02:32:31.432Z,7.74
2023-04-26T02:32:43.471Z,7.76
2023-04-26T02:32:55.638Z,7.77
2023-04-26T02:33:08.720Z,7.78
2023-04-26T02:33:20.666Z,7.77
2023-04-26T02:33:33.006Z,7.78
2023-04-26T02:33:44.974Z,7.79
2023-04-26T02:33:56.894Z,7.82
2023-04-26T02:34:09.002Z,7.78
2023-04-26T02:34:20.973Z,7.80
2023-04-26T02:34:32.968Z,7.81
2023-04-26T02:34:44.902Z,7.82
2023-04-26T02:34:56.973Z,7.84
2023-04-26T02:35:09.503Z,7.85
2023-04-26T02:35:21.952Z,7.85
2023-04-26T02:35:34.181Z,7.87
2023-04-26T02:35:46.337Z,7.87
2023-04-26T02:35:58.677Z,7.91
2023-04-26T02:36:10.797Z,7.91
2023-04-26T02:36:22.697Z,7.92
2023-04-26T02:36:34.898Z,7.91
2023-04-26T02:36:48.514Z,7.92
2023-04-26T02:37:00.775Z,7.95
2023-04-26T02:37:12.712Z,7.94
2023-04-26T02:37:24.727Z,7.95
2023-04-26T02:37:37.340Z,7.96
2023-04-26T02:37:49.480Z,7.97
2023-04-26T02:38:01.472Z,7.99
2023-04-26T02:38:13.378Z,7.92
2023-04-26T02:38:28.237Z,7.90
2023-04-26T02:38:40.998Z,7.91
2023-04-26T02:38:53.296Z,7.93
2023-04-26T02:39:05.746Z,7.96
2023-04-26T02:39:17.635Z,7.97
2023-04-26T02:39:29.609Z,7.95
2023-04-26T02:39:41.688Z,7.90
2023-04-26T02:39:53.694Z,7.91
2023-04-26T02:40:06.613Z,7.91
2023-04-26T02:40:19.426Z,7.91
2023-04-26T02:40:31.741Z,7.91
2023-04-26T02:40:43.645Z,7.91
2023-04-26T02:41:00.805Z,7.92
2023-04-26T02:41:12.731Z,7.93
2023-04-26T02:41:24.966Z,7.95
2023-04-26T02:41:37.039Z,7.94
2023-04-26T02:41:49.057Z,7.96
2023-04-26T02:42:01.020Z,7.98
2023-04-26T02:42:12.970Z,7.94
2023-04-26T02:42:25.466Z,7.86
2023-04-26T02:42:37.540Z,7.89
2023-04-26T02:42:49.660Z,7.89
2023-04-26T02:43:01.599Z,7.87
2023-04-26T02:43:13.508Z,7.87
2023-04-26T02:43:25.690Z,7.87
2023-04-26T02:43:37.809Z,7.88
2023-04-26T02:43:49.689Z,7.90
2023-04-26T02:44:01.771Z,7.91
2023-04-26T02:44:13.651Z,7.90
2023-04-26T02:44:29.485Z,7.89
2023-04-26T02:44:41.460Z,7.88
2023-04-26T02:44:53.432Z,7.86
2023-04-26T02:45:07.087Z,7.90
2023-04-26T02:45:19.124Z,7.85
2023-04-26T02:45:31.188Z,7.85
2023-04-26T02:45:43.459Z,7.88
2023-04-26T02:45:55.611Z,7.89
2023-04-26T02:46:08.130Z,7.92
2023-04-26T02:46:20.017Z,7.92
2023-04-26T02:46:32.058Z,7.93
2023-04-26T02:46:44.057Z,7.93
2023-04-26T02:46:56.095Z,7.94
2023-04-26T02:47:08.241Z,7.95
2023-04-26T02:47:23.433Z,7.93
2023-04-26T02:47:38.789Z,7.91
2023-04-26T02:47:50.892Z,7.93
2023-04-26T02:48:03.162Z,7.92